Terminal Aerodrome Forecast
Issued by NWS Duluth, MN

Home | Current Version | Previous Version | Text Only | Print | Product List | Glossary On
Versions: 1 2 3 4 5 6 7 8 9 10 11 12 13 14 15 16 17 18 19 20 21 22 23 24 25 26 27 28 29 30 31
219
FTUS43 KDLH 251244 AAB
TAFDLH
TAF AMD
KDLH 251244Z 2513/2612 14012KT 5SM BR VCSH OVC008
      TEMPO 2513/2516 1SM RA BR OVC003
     FM251600 20012G19KT P6SM SCT007 BKN015
     FM251800 22014G21KT P6SM SCT040
     FM252100 27014G20KT P6SM VCSH SCT012 BKN025
     FM260700 29015G25KT 5SM -SHRA BR SCT007 BKN018=

USA.gov is the U.S. government's official web portal to all federal, state and local government web resources and services.